Time;durP1;ratioP1;P1;durP2;ratioP2;P2;SDS_P1;SDS_P2;PMS_P1;PMS_P2;Temp;Humidity;BMP_temperature;BMP_pressure;BME280_temperature;BME280_humidity;BME280_pressure;Samples;Min_cycle;Max_cycle;Signal;HPM_P1;HPM_P2
2022/03/26 00:01:30;;;;;;;53.75;27.70;;;24.50;31.90;;;;;;6156060;28;83240;-61
2022/03/26 00:04:32;;;;;;;52.40;29.27;;;24.50;31.30;;;;;;6156061;28;83202;-61
2022/03/26 00:07:32;;;;;;;47.33;27.10;;;24.50;31.90;;;;;;6141425;28;84282;-61
2022/03/26 00:10:33;;;;;;;49.60;25.90;;;24.50;31.40;;;;;;6155964;28;83079;-60
2022/03/26 00:13:33;;;;;;;43.08;22.88;;;24.50;31.40;;;;;;6140429;28;83626;-61
2022/03/26 00:16:34;;;;;;;47.30;24.98;;;24.50;31.60;;;;;;6132308;28;84165;-60
2022/03/26 00:19:34;;;;;;;50.28;26.88;;;24.50;31.60;;;;;;6147252;28;83139;-60
2022/03/26 00:22:35;;;;;;;51.28;26.75;;;24.50;31.50;;;;;;6147182;28;83179;-63
2022/03/26 00:25:35;;;;;;;49.58;27.30;;;24.50;31.40;;;;;;6139890;28;84205;-60
2022/03/26 00:28:37;;;;;;;48.38;26.63;;;24.40;31.60;;;;;;6144359;28;83901;-61
2022/03/26 00:31:38;;;;;;;41.30;23.75;;;24.40;32.00;;;;;;6149215;28;82980;-61
2022/03/26 00:34:39;;;;;;;54.85;27.15;;;24.50;32.40;;;;;;6137796;28;82986;-61
2022/03/26 00:37:40;;;;;;;48.72;27.30;;;24.40;31.60;;;;;;6134514;28;83145;-60
2022/03/26 00:40:41;;;;;;;50.85;26.58;;;24.40;32.00;;;;;;6144706;28;83203;-61
2022/03/26 00:43:41;;;;;;;50.05;27.80;;;24.40;31.60;;;;;;6144594;28;82962;-61
2022/03/26 00:46:42;;;;;;;49.92;27.65;;;24.40;31.20;;;;;;6139923;28;84140;-61
2022/03/26 00:49:42;;;;;;;52.58;26.58;;;24.40;31.40;;;;;;6147219;28;84311;-60
2022/03/26 00:52:43;;;;;;;47.25;25.48;;;24.40;31.40;;;;;;6144701;28;83927;-60
2022/03/26 00:55:43;;;;;;;46.38;25.80;;;24.40;31.40;;;;;;6139645;28;83462;-60
2022/03/26 00:58:44;;;;;;;49.40;28.13;;;24.40;31.50;;;;;;6145229;28;83200;-60
2022/03/26 01:01:45;;;;;;;50.00;27.30;;;24.40;31.10;;;;;;6146670;28;83324;-61
2022/03/26 01:04:46;;;;;;;50.67;26.15;;;24.40;31.10;;;;;;6151565;28;86247;-60
2022/03/26 01:07:46;;;;;;;49.50;26.38;;;24.40;31.20;;;;;;6141437;28;84194;-60
2022/03/26 01:10:46;;;;;;;53.85;29.15;;;24.40;31.10;;;;;;6151308;28;82958;-60
2022/03/26 01:13:48;;;;;;;45.38;27.65;;;24.40;31.20;;;;;;6143969;28;84737;-60
2022/03/26 01:16:48;;;;;;;49.92;27.27;;;24.40;30.90;;;;;;6158502;28;83433;-60
2022/03/26 01:19:49;;;;;;;43.55;26.13;;;24.40;31.20;;;;;;6153223;28;82753;-60
2022/03/26 01:22:49;;;;;;;49.33;25.90;;;24.40;31.10;;;;;;6155075;28;83245;-60
2022/03/26 01:25:50;;;;;;;44.17;24.52;;;24.40;31.00;;;;;;6132901;28;84696;-60
2022/03/26 01:28:50;;;;;;;43.08;25.98;;;24.40;31.00;;;;;;6134652;28;83293;-60
2022/03/26 01:31:51;;;;;;;44.28;26.17;;;24.30;31.00;;;;;;6134480;28;83074;-61
2022/03/26 01:34:51;;;;;;;44.13;25.13;;;24.40;31.10;;;;;;6153220;28;83049;-61
2022/03/26 01:37:52;;;;;;;45.80;26.05;;;24.40;31.20;;;;;;6156644;28;83023;-61
2022/03/26 01:40:52;;;;;;;49.75;26.83;;;24.40;31.10;;;;;;6159459;28;83382;-61
2022/03/26 01:43:53;;;;;;;36.53;20.77;;;24.40;31.20;;;;;;6142941;28;83154;-60
2022/03/26 01:46:53;;;;;;;37.45;21.98;;;24.30;31.80;;;;;;6135032;28;83225;-61
2022/03/26 01:49:54;;;;;;;52.13;25.45;;;24.40;31.70;;;;;;6134447;28;83297;-61
2022/03/26 01:52:54;;;;;;;38.88;22.02;;;24.40;31.40;;;;;;6134630;28;82957;-61
2022/03/26 01:55:55;;;;;;;44.08;23.77;;;24.40;31.60;;;;;;6134562;28;83355;-61
2022/03/26 01:58:55;;;;;;;42.42;23.63;;;24.40;31.40;;;;;;6142474;28;83302;-62
2022/03/26 02:02:01;;;;;;;40.75;23.27;;;24.30;31.70;;;;;;6137558;28;85308;-61
2022/03/26 02:05:03;;;;;;;39.13;21.80;;;24.30;31.80;;;;;;6145636;28;83017;-60
2022/03/26 02:08:03;;;;;;;44.78;25.70;;;24.30;31.80;;;;;;6156396;28;83376;-61
2022/03/26 02:11:04;;;;;;;45.92;24.35;;;24.30;31.50;;;;;;6145994;28;83015;-62
2022/03/26 02:14:07;;;;;;;44.78;24.38;;;24.30;31.50;;;;;;6157566;28;83156;-61
2022/03/26 02:17:07;;;;;;;40.70;22.38;;;24.30;31.70;;;;;;6146077;28;84323;-61
2022/03/26 02:20:08;;;;;;;45.78;24.52;;;24.30;31.50;;;;;;6131688;28;84207;-60
2022/03/26 02:23:08;;;;;;;44.20;24.45;;;24.30;31.50;;;;;;6132881;28;83857;-61
2022/03/26 02:26:09;;;;;;;43.50;24.58;;;24.30;31.70;;;;;;6143629;28;83047;-61
2022/03/26 02:29:09;;;;;;;47.75;25.38;;;24.30;31.80;;;;;;6157916;28;83072;-61
2022/03/26 02:32:10;;;;;;;51.47;26.70;;;24.30;31.90;;;;;;6157368;28;83260;-61
2022/03/26 02:35:10;;;;;;;42.92;24.85;;;24.30;31.70;;;;;;6155058;28;83052;-61
2022/03/26 02:38:10;;;;;;;44.45;26.08;;;24.30;31.50;;;;;;6134054;28;83474;-61
2022/03/26 02:41:11;;;;;;;45.63;26.58;;;24.30;31.60;;;;;;6133703;28;84346;-61
2022/03/26 02:44:12;;;;;;;45.90;26.27;;;24.30;31.70;;;;;;6133675;28;82915;-61
2022/03/26 02:47:12;;;;;;;46.92;26.65;;;24.30;31.60;;;;;;6150738;28;84080;-61
2022/03/26 02:50:13;;;;;;;50.80;28.30;;;24.30;31.50;;;;;;6157383;28;83199;-60
2022/03/26 02:53:13;;;;;;;49.22;27.83;;;24.30;31.20;;;;;;6135044;28;83714;-60
2022/03/26 02:56:14;;;;;;;46.75;26.60;;;24.30;31.30;;;;;;6144192;28;84010;-60
2022/03/26 02:59:14;;;;;;;50.35;27.23;;;24.30;31.60;;;;;;6157226;28;83080;-61
2022/03/26 03:02:15;;;;;;;45.95;26.80;;;24.30;31.60;;;;;;6155964;28;85074;-60
2022/03/26 03:05:15;;;;;;;47.88;26.55;;;24.30;31.20;;;;;;6157539;28;83217;-61
2022/03/26 03:08:16;;;;;;;43.08;25.17;;;24.20;31.80;;;;;;6157075;28;82879;-60
2022/03/26 03:11:17;;;;;;;47.03;24.23;;;24.20;32.30;;;;;;6156921;28;83310;-60
2022/03/26 03:14:18;;;;;;;44.70;24.63;;;24.20;33.00;;;;;;6155233;28;83127;-60
2022/03/26 03:17:18;;;;;;;35.83;22.58;;;24.20;32.80;;;;;;6156844;28;84154;-59
2022/03/26 03:20:19;;;;;;;42.08;23.60;;;24.20;33.60;;;;;;6156739;28;82854;-60
2022/03/26 03:23:20;;;;;;;37.97;20.98;;;24.10;33.70;;;;;;6155970;28;84248;-60
2022/03/26 03:26:20;;;;;;;39.72;21.52;;;24.20;34.40;;;;;;6156778;28;83041;-60
2022/03/26 03:29:21;;;;;;;37.45;21.73;;;24.20;33.30;;;;;;6141567;28;83012;-60
2022/03/26 03:32:22;;;;;;;40.72;23.45;;;24.20;34.00;;;;;;6143455;28;83503;-60
2022/03/26 03:35:22;;;;;;;39.95;21.70;;;24.20;33.60;;;;;;6135405;28;84255;-61
2022/03/26 03:38:24;;;;;;;40.47;21.92;;;24.20;34.40;;;;;;6132916;28;83158;-61
2022/03/26 03:41:24;;;;;;;38.83;21.42;;;24.10;34.10;;;;;;6132487;28;83385;-63
2022/03/26 03:44:25;;;;;;;36.42;20.83;;;24.20;33.90;;;;;;6142589;28;83088;-61
2022/03/26 03:47:25;;;;;;;33.55;20.33;;;24.10;34.30;;;;;;6156207;28;83448;-61
2022/03/26 03:50:26;;;;;;;40.92;21.55;;;24.10;33.90;;;;;;6154909;28;83054;-61
2022/03/26 03:53:27;;;;;;;38.33;21.17;;;24.10;33.90;;;;;;6154705;28;83066;-61
2022/03/26 03:56:27;;;;;;;31.38;19.45;;;24.20;33.90;;;;;;6153982;28;85191;-61
2022/03/26 03:59:28;;;;;;;37.92;21.13;;;24.20;33.80;;;;;;6155995;28;83411;-61
2022/03/26 04:02:29;;;;;;;35.53;19.90;;;24.10;33.60;;;;;;6154950;28;83487;-61
2022/03/26 04:05:29;;;;;;;38.22;20.60;;;24.10;34.00;;;;;;6155334;28;84055;-60
2022/03/26 04:08:30;;;;;;;35.88;20.58;;;24.10;33.80;;;;;;6155961;28;82952;-61
2022/03/26 04:11:30;;;;;;;33.15;19.95;;;24.10;33.60;;;;;;6142964;28;83113;-61
2022/03/26 04:14:31;;;;;;;39.13;21.48;;;24.10;33.70;;;;;;6129825;28;84281;-62
2022/03/26 04:17:32;;;;;;;38.15;21.00;;;24.10;33.50;;;;;;6139613;28;84077;-62
2022/03/26 04:20:33;;;;;;;35.55;20.60;;;24.20;34.50;;;;;;6139643;28;83044;-62
2022/03/26 04:23:33;;;;;;;35.95;19.92;;;24.20;34.20;;;;;;6145198;28;83311;-61
2022/03/26 04:26:34;;;;;;;37.13;21.35;;;24.30;34.20;;;;;;6146098;28;82927;-62
2022/03/26 04:29:35;;;;;;;36.25;21.52;;;24.30;34.00;;;;;;6147914;28;83127;-62
2022/03/26 04:32:35;;;;;;;39.60;22.27;;;24.30;33.90;;;;;;6154793;28;83456;-62
2022/03/26 04:35:36;;;;;;;45.22;24.05;;;24.40;33.70;;;;;;6155427;28;83224;-62
2022/03/26 04:38:36;;;;;;;48.50;24.05;;;24.40;33.30;;;;;;6155224;28;82894;-62
2022/03/26 04:41:37;;;;;;;43.95;22.73;;;24.40;32.90;;;;;;6154210;28;84164;-62
2022/03/26 04:44:37;;;;;;;44.95;24.35;;;24.50;32.70;;;;;;6154833;28;83040;-62
2022/03/26 04:47:38;;;;;;;41.42;24.70;;;24.50;32.40;;;;;;6144406;28;83311;-62
2022/03/26 04:50:38;;;;;;;43.38;25.15;;;24.50;32.10;;;;;;6149925;28;83291;-62
2022/03/26 04:53:39;;;;;;;41.25;23.95;;;24.60;31.90;;;;;;6149650;28;83357;-62
2022/03/26 04:56:40;;;;;;;46.83;24.85;;;24.60;31.80;;;;;;6151151;28;84239;-63
2022/03/26 04:59:40;;;;;;;42.65;24.15;;;24.60;31.60;;;;;;6129071;28;86044;-62
2022/03/26 05:02:41;;;;;;;49.45;26.20;;;24.60;31.40;;;;;;6143222;28;83200;-61
2022/03/26 05:05:41;;;;;;;41.90;24.80;;;24.60;31.40;;;;;;6147237;28;83377;-61
2022/03/26 05:08:42;;;;;;;45.92;25.55;;;24.60;31.30;;;;;;6144677;28;83175;-62
2022/03/26 05:11:42;;;;;;;46.95;24.70;;;24.60;31.10;;;;;;6146111;28;84143;-61
2022/03/26 05:14:43;;;;;;;49.33;27.13;;;24.60;31.00;;;;;;6143862;28;83456;-62
2022/03/26 05:17:44;;;;;;;45.58;25.25;;;24.70;31.00;;;;;;6150248;28;83185;-62
2022/03/26 05:20:44;;;;;;;58.03;24.67;;;24.60;30.90;;;;;;6142910;28;83074;-64
2022/03/26 05:23:45;;;;;;;47.72;24.35;;;24.60;31.20;;;;;;6130859;28;83146;-62
2022/03/26 05:26:45;;;;;;;53.38;24.42;;;24.60;31.90;;;;;;6132229;28;82835;-64
2022/03/26 05:29:46;;;;;;;34.92;20.42;;;24.60;32.80;;;;;;6153504;28;83220;-64
2022/03/26 05:32:47;;;;;;;28.67;16.45;;;24.60;32.20;;;;;;6144991;28;84705;-62
2022/03/26 05:35:48;;;;;;;28.48;16.35;;;24.40;32.20;;;;;;6142671;28;84175;-64
2022/03/26 05:38:48;;;;;;;28.35;14.75;;;24.30;32.20;;;;;;6145896;28;83378;-61
2022/03/26 05:41:49;;;;;;;19.65;12.35;;;24.30;32.30;;;;;;6159006;28;83063;-73
2022/03/26 05:44:49;;;;;;;20.85;11.65;;;24.20;32.30;;;;;;6143843;28;83446;-71
2022/03/26 05:47:51;;;;;;;20.40;11.95;;;24.20;32.10;;;;;;6142551;28;83951;-69
2022/03/26 05:50:52;;;;;;;14.95;9.82;;;24.20;31.90;;;;;;6148349;28;82933;-70
2022/03/26 05:53:52;;;;;;;15.32;9.63;;;24.10;31.90;;;;;;6144594;28;82083;-62
2022/03/26 05:56:53;;;;;;;17.23;9.43;;;24.10;31.80;;;;;;6148144;28;80740;-63
2022/03/26 05:59:53;;;;;;;18.30;9.32;;;24.00;32.20;;;;;;6157217;28;80694;-63
2022/03/26 06:02:54;;;;;;;16.45;9.43;;;24.00;32.20;;;;;;6140019;28;81373;-63
2022/03/26 06:05:54;;;;;;;16.30;9.10;;;24.00;32.80;;;;;;6144655;28;80965;-63
2022/03/26 06:08:55;;;;;;;16.00;8.40;;;24.00;33.00;;;;;;6161578;28;80472;-63
2022/03/26 06:11:59;;;;;;;15.32;7.50;;;24.00;33.10;;;;;;6161140;28;80727;-63
2022/03/26 06:14:59;;;;;;;20.00;9.00;;;24.00;33.30;;;;;;6159956;28;80314;-62
2022/03/26 06:17:59;;;;;;;13.25;7.40;;;24.00;33.60;;;;;;6160287;28;80820;-63
2022/03/26 06:21:00;;;;;;;12.68;7.30;;;24.10;33.80;;;;;;6151717;28;82975;-65
2022/03/26 06:24:02;;;;;;;10.50;6.40;;;24.00;33.70;;;;;;6150064;28;80565;-64
2022/03/26 06:27:03;;;;;;;12.93;7.75;;;24.00;33.60;;;;;;6161389;28;80627;-63
2022/03/26 06:30:03;;;;;;;14.20;7.82;;;24.10;33.80;;;;;;6159337;28;80405;-64
2022/03/26 06:33:04;;;;;;;13.13;7.63;;;24.10;33.60;;;;;;6142458;28;80464;-63
2022/03/26 06:36:05;;;;;;;13.85;7.47;;;24.10;34.20;;;;;;6136208;28;80719;-63
2022/03/26 06:39:06;;;;;;;15.70;7.32;;;24.20;34.40;;;;;;6155683;28;81505;-63
2022/03/26 06:42:06;;;;;;;11.45;7.20;;;24.30;34.50;;;;;;6153142;28;81071;-63
2022/03/26 06:45:07;;;;;;;14.13;7.05;;;24.30;34.50;;;;;;6139563;28;80636;-65
2022/03/26 06:48:08;;;;;;;15.98;7.53;;;24.30;34.60;;;;;;6149609;28;81506;-66
2022/03/26 06:51:08;;;;;;;10.90;6.65;;;24.30;34.80;;;;;;6143761;28;80770;-64
2022/03/26 06:54:09;;;;;;;9.25;6.28;;;24.30;34.70;;;;;;6153670;28;80618;-64
2022/03/26 06:57:09;;;;;;;9.95;6.28;;;24.30;34.40;;;;;;6152777;28;80932;-66
2022/03/26 07:00:11;;;;;;;13.45;6.57;;;24.40;34.80;;;;;;6148614;28;80440;-62
2022/03/26 07:03:11;;;;;;;11.05;5.63;;;24.40;35.00;;;;;;6154614;28;81638;-64
2022/03/26 07:06:13;;;;;;;22.73;6.18;;;24.50;35.20;;;;;;6146533;28;81392;-63
2022/03/26 07:09:13;;;;;;;15.93;6.75;;;24.50;35.50;;;;;;6151100;28;80999;-64
2022/03/26 07:12:14;;;;;;;10.48;5.95;;;24.60;35.70;;;;;;6147581;28;80660;-78
2022/03/26 07:15:15;;;;;;;9.82;5.78;;;24.60;35.40;;;;;;6144045;28;80561;-73
2022/03/26 07:18:16;;;;;;;10.05;5.72;;;24.60;35.70;;;;;;6142566;28;80651;-65
2022/03/26 07:21:16;;;;;;;9.25;5.45;;;24.60;35.70;;;;;;6141980;28;80825;-65
2022/03/26 07:24:17;;;;;;;9.20;5.85;;;24.60;35.70;;;;;;6151695;28;81434;-66
2022/03/26 07:27:17;;;;;;;9.68;5.63;;;24.70;35.80;;;;;;6151430;28;82813;-65
2022/03/26 07:30:18;;;;;;;11.73;7.82;;;24.70;36.00;;;;;;6139246;28;81398;-64
2022/03/26 07:33:19;;;;;;;8.35;5.45;;;24.70;35.80;;;;;;6142833;28;81235;-64
2022/03/26 07:36:19;;;;;;;9.20;5.55;;;24.70;35.60;;;;;;6141945;28;80362;-65
2022/03/26 07:39:20;;;;;;;11.30;5.65;;;24.70;35.60;;;;;;6142422;28;81724;-66
2022/03/26 07:42:20;;;;;;;11.93;7.03;;;24.70;35.60;;;;;;6149346;28;81459;-67
2022/03/26 07:45:21;;;;;;;10.75;6.18;;;24.70;35.40;;;;;;6136917;28;80294;-68
2022/03/26 07:48:21;;;;;;;10.10;6.00;;;24.70;35.30;;;;;;6148215;28;80276;-66
2022/03/26 07:51:22;;;;;;;11.77;6.43;;;24.70;35.70;;;;;;6150654;28;81166;-65
2022/03/26 07:54:22;;;;;;;9.77;6.38;;;24.70;35.00;;;;;;6137304;28;84038;-67
2022/03/26 07:57:23;;;;;;;10.90;5.75;;;24.70;34.90;;;;;;6135685;28;80187;-67
2022/03/26 08:00:23;;;;;;;12.02;6.15;;;24.60;34.70;;;;;;6133309;28;80583;-72
2022/03/26 08:03:24;;;;;;;13.50;6.55;;;24.70;34.70;;;;;;6137611;28;81403;-67
2022/03/26 08:06:25;;;;;;;8.93;5.53;;;24.70;35.10;;;;;;6159994;28;80357;-71
2022/03/26 08:09:26;;;;;;;12.65;6.07;;;24.70;35.20;;;;;;6156141;28;81613;-67
2022/03/26 08:12:26;;;;;;;12.07;5.25;;;24.70;35.10;;;;;;6149772;28;82133;-67
2022/03/26 08:15:26;;;;;;;10.93;5.78;;;24.80;35.40;;;;;;6153266;28;81117;-68
2022/03/26 08:18:27;;;;;;;12.95;5.68;;;24.90;35.30;;;;;;6144357;28;81666;-68
2022/03/26 08:21:28;;;;;;;14.18;5.60;;;24.90;35.60;;;;;;6137843;28;80489;-75
2022/03/26 08:24:28;;;;;;;9.55;5.10;;;24.90;35.70;;;;;;6153093;28;80698;-68
2022/03/26 08:27:29;;;;;;;13.77;5.65;;;24.90;36.00;;;;;;6145144;28;81494;-65
2022/03/26 08:30:29;;;;;;;8.30;4.93;;;25.00;36.30;;;;;;6144492;28;81436;-69
2022/03/26 08:33:30;;;;;;;19.13;5.65;;;25.00;36.50;;;;;;6154860;28;81101;-68
2022/03/26 08:36:30;;;;;;;13.13;6.22;;;25.00;36.30;;;;;;6148413;28;80787;-67
2022/03/26 08:39:31;;;;;;;9.07;5.38;;;25.10;36.20;;;;;;6150681;28;80470;-68
2022/03/26 08:42:31;;;;;;;9.05;5.03;;;25.10;36.10;;;;;;6158024;28;80363;-67
2022/03/26 08:45:32;;;;;;;11.60;6.05;;;25.00;36.00;;;;;;6151481;28;80546;-65
2022/03/26 08:48:33;;;;;;;10.73;5.47;;;25.00;35.80;;;;;;6153248;28;81002;-67
2022/03/26 08:51:33;;;;;;;11.02;5.90;;;25.00;35.90;;;;;;6156720;28;80408;-67
2022/03/26 08:54:34;;;;;;;12.77;6.47;;;25.00;35.90;;;;;;6156158;28;80731;-66
2022/03/26 08:57:34;;;;;;;9.98;6.03;;;25.10;36.00;;;;;;6151008;28;80479;-66
2022/03/26 09:00:34;;;;;;;9.25;5.25;;;25.00;35.80;;;;;;6139564;28;80745;-65
2022/03/26 09:03:37;;;;;;;10.40;4.95;;;25.10;36.50;;;;;;6153925;28;80543;-71
2022/03/26 09:06:38;;;;;;;8.15;4.38;;;25.10;35.80;;;;;;6159682;28;80651;-65
2022/03/26 09:09:38;;;;;;;7.85;4.10;;;25.10;35.80;;;;;;6154165;28;81514;-73
2022/03/26 09:12:39;;;;;;;9.40;4.93;;;25.20;35.90;;;;;;6155688;28;82978;-72
2022/03/26 09:15:39;;;;;;;7.20;3.88;;;25.20;35.80;;;;;;6149923;28;80876;-79
2022/03/26 09:18:40;;;;;;;5.15;3.95;;;25.20;35.90;;;;;;6155771;28;80475;-78
2022/03/26 09:21:41;;;;;;;4.55;3.25;;;25.20;36.10;;;;;;6153729;28;81594;-74
2022/03/26 09:24:42;;;;;;;7.10;3.47;;;25.30;36.10;;;;;;6147385;28;81583;-64
2022/03/26 09:27:42;;;;;;;6.72;3.95;;;25.30;36.20;;;;;;6147405;28;80459;-65
2022/03/26 09:30:43;;;;;;;6.15;3.40;;;25.30;36.40;;;;;;6157223;28;80375;-73
2022/03/26 09:33:43;;;;;;;6.07;3.92;;;25.40;36.40;;;;;;6141538;28;81808;-71
2022/03/26 09:36:44;;;;;;;6.45;4.20;;;25.40;36.10;;;;;;6162958;28;80294;-72
2022/03/26 09:39:45;;;;;;;5.07;3.30;;;25.40;36.60;;;;;;6146053;28;80555;-73
2022/03/26 09:42:45;;;;;;;5.32;3.75;;;25.40;36.20;;;;;;6151331;28;80483;-73
2022/03/26 09:45:46;;;;;;;6.65;2.92;;;25.40;36.20;;;;;;6161672;28;80844;-74
2022/03/26 09:48:46;;;;;;;8.02;3.50;;;25.50;36.20;;;;;;6162976;28;80182;-72
2022/03/26 09:51:47;;;;;;;6.72;3.47;;;25.50;36.40;;;;;;6139410;28;80540;-74
2022/03/26 09:54:47;;;;;;;5.75;3.08;;;25.50;36.50;;;;;;6139647;28;80394;-65
2022/03/26 09:57:48;;;;;;;7.82;2.97;;;25.60;36.40;;;;;;6143220;28;82396;-72
2022/03/26 10:00:49;;;;;;;4.40;2.55;;;25.60;36.60;;;;;;6139285;28;80642;-77
2022/03/26 10:03:49;;;;;;;6.00;3.13;;;25.60;36.70;;;;;;6146369;28;80252;-78
2022/03/26 10:06:50;;;;;;;11.40;3.92;;;25.70;36.50;;;;;;6166118;28;80391;-76
2022/03/26 10:09:55;;;;;;;5.70;4.28;;;25.80;36.30;;;;;;6142555;28;80210;-76
2022/03/26 10:12:56;;;;;;;6.82;4.15;;;25.80;35.90;;;;;;6149384;28;80374;-77
2022/03/26 10:15:56;;;;;;;8.68;4.38;;;25.80;36.30;;;;;;6163309;28;80571;-74
2022/03/26 10:18:57;;;;;;;5.60;3.47;;;25.80;35.50;;;;;;6153788;28;80773;-65
2022/03/26 10:21:57;;;;;;;8.68;4.38;;;25.90;35.50;;;;;;6161326;28;80565;-67
2022/03/26 10:24:58;;;;;;;8.40;4.72;;;25.90;35.70;;;;;;6144786;28;81138;-68
2022/03/26 10:27:59;;;;;;;15.55;5.28;;;26.00;35.60;;;;;;6153651;28;80764;-68
2022/03/26 10:34:22;;;;;;;11.57;4.80;;;26.00;34.90;;;;;;6147683;28;80743;-68
2022/03/26 10:37:22;;;;;;;9.00;4.65;;;26.00;34.50;;;;;;6161039;28;81795;-66
2022/03/26 10:40:23;;;;;;;10.55;4.95;;;26.00;34.30;;;;;;6162145;28;81048;-65
2022/03/26 10:43:23;;;;;;;9.48;4.18;;;26.00;34.00;;;;;;6155796;28;80317;-65
2022/03/26 10:46:24;;;;;;;7.38;4.57;;;26.00;33.70;;;;;;6161754;28;81547;-65
2022/03/26 10:49:24;;;;;;;8.23;4.35;;;26.10;33.50;;;;;;6161322;28;80342;-65
2022/03/26 10:52:25;;;;;;;5.72;3.60;;;26.10;33.60;;;;;;6161677;28;81475;-77
2022/03/26 10:55:25;;;;;;;11.73;4.55;;;26.10;33.50;;;;;;6156092;28;81610;-66
2022/03/26 10:58:26;;;;;;;9.05;3.88;;;26.20;33.60;;;;;;6155757;28;80308;-65
2022/03/26 11:01:27;;;;;;;9.85;3.63;;;26.20;33.60;;;;;;6141456;28;81705;-65
2022/03/26 11:04:27;;;;;;;7.97;3.90;;;26.20;33.60;;;;;;6142722;28;80586;-65
2022/03/26 11:07:28;;;;;;;7.00;3.88;;;26.10;33.50;;;;;;6141072;28;83566;-66
2022/03/26 11:10:28;;;;;;;8.60;4.45;;;26.10;33.30;;;;;;6147518;28;80589;-65
2022/03/26 11:13:29;;;;;;;8.35;4.78;;;26.10;33.10;;;;;;6144716;28;81521;-65
2022/03/26 11:16:29;;;;;;;8.38;3.95;;;26.10;33.10;;;;;;6146369;28;81580;-65
2022/03/26 11:19:30;;;;;;;9.25;4.18;;;26.10;33.00;;;;;;6152985;28;81561;-64
2022/03/26 11:22:30;;;;;;;7.15;4.50;;;26.10;33.10;;;;;;6143303;28;81157;-63
2022/03/26 11:25:31;;;;;;;15.38;5.65;;;26.10;34.00;;;;;;6146275;28;80426;-65
2022/03/26 11:28:31;;;;;;;19.85;7.05;;;26.10;34.20;;;;;;6142982;28;80455;-65
2022/03/26 11:31:32;;;;;;;19.05;8.43;;;26.20;34.20;;;;;;6141544;28;81527;-65
2022/03/26 11:34:33;;;;;;;35.45;8.20;;;26.10;33.90;;;;;;6146339;28;81516;-65
2022/03/26 11:37:33;;;;;;;14.15;6.75;;;26.10;33.50;;;;;;6154768;28;81879;-63
2022/03/26 11:40:34;;;;;;;12.70;7.00;;;26.00;33.80;;;;;;6147136;28;81238;-65
2022/03/26 11:43:34;;;;;;;12.85;6.03;;;26.10;34.30;;;;;;6141061;28;80378;-64
2022/03/26 11:53:27;;;;;;;28.98;7.18;;;26.10;34.10;;;;;;6147324;28;81375;-65
2022/03/26 11:56:27;;;;;;;16.58;6.60;;;26.00;34.40;;;;;;6148339;28;81234;-67
2022/03/26 11:59:28;;;;;;;12.30;6.07;;;26.00;34.20;;;;;;6154158;28;80365;-64
2022/03/26 12:02:28;;;;;;;17.00;6.30;;;26.00;33.70;;;;;;6146744;28;80512;-64
2022/03/26 12:08:49;;;;;;;12.07;6.53;;;26.00;33.00;;;;;;6150446;28;80635;-64
2022/03/26 12:11:49;;;;;;;14.50;7.57;;;26.00;32.30;;;;;;6146401;28;80165;-64
2022/03/26 12:14:49;;;;;;;18.98;7.72;;;25.80;31.80;;;;;;6150113;28;80736;-63
2022/03/26 12:17:50;;;;;;;18.23;7.40;;;25.90;31.30;;;;;;6146457;28;80525;-64
2022/03/26 12:20:51;;;;;;;18.30;8.00;;;25.80;31.10;;;;;;6146914;28;81480;-64
2022/03/26 12:23:52;;;;;;;21.63;8.73;;;25.70;30.40;;;;;;6135506;28;80733;-64
2022/03/26 12:26:52;;;;;;;20.17;9.13;;;25.60;30.30;;;;;;6140181;28;81688;-66
2022/03/26 12:29:53;;;;;;;17.35;8.07;;;25.60;30.40;;;;;;6149039;28;80531;-67
2022/03/26 12:32:54;;;;;;;16.20;7.30;;;25.60;30.60;;;;;;6153231;28;82152;-67
2022/03/26 12:35:55;;;;;;;19.67;8.18;;;25.50;30.70;;;;;;6152962;28;80428;-64
2022/03/26 12:38:57;;;;;;;16.80;7.28;;;25.30;30.80;;;;;;6152672;28;81831;-65
2022/03/26 12:41:57;;;;;;;13.20;7.93;;;25.40;31.10;;;;;;6144751;28;84578;-64
2022/03/26 12:44:58;;;;;;;22.38;8.25;;;25.40;30.50;;;;;;6151782;28;80320;-64
2022/03/26 12:47:59;;;;;;;31.90;7.72;;;25.10;31.00;;;;;;6159937;28;81684;-65
2022/03/26 12:51:00;;;;;;;21.90;8.38;;;25.20;31.50;;;;;;6142589;28;81598;-64
2022/03/26 12:54:01;;;;;;;15.40;7.95;;;25.20;31.40;;;;;;6146218;28;80994;-64
2022/03/26 12:57:01;;;;;;;18.00;7.72;;;25.30;31.40;;;;;;6149144;28;80723;-64
2022/03/26 13:00:02;;;;;;;15.40;7.18;;;25.20;31.10;;;;;;6149195;28;80839;-65
2022/03/26 13:03:02;;;;;;;15.77;7.32;;;25.20;31.10;;;;;;6148144;28;80523;-63
2022/03/26 13:06:03;;;;;;;16.85;8.15;;;25.10;30.80;;;;;;6147564;28;81105;-68
2022/03/26 13:09:03;;;;;;;14.35;6.68;;;25.00;30.30;;;;;;6149306;28;80471;-66
2022/03/26 13:12:04;;;;;;;11.70;7.28;;;25.10;30.60;;;;;;6144973;28;80532;-78
2022/03/26 13:15:04;;;;;;;13.40;6.70;;;25.20;30.70;;;;;;6154167;28;80366;-64
2022/03/26 13:18:05;;;;;;;16.35;6.93;;;25.30;30.40;;;;;;6151725;28;80801;-65
2022/03/26 13:21:05;;;;;;;13.43;7.10;;;25.20;31.10;;;;;;6139490;28;80697;-64
2022/03/26 13:24:09;;;;;;;17.13;7.95;;;25.20;31.20;;;;;;6141096;28;81879;-65
2022/03/26 13:27:09;;;;;;;13.48;6.43;;;25.20;31.10;;;;;;6163052;28;81486;-77
2022/03/26 13:30:10;;;;;;;16.30;6.68;;;25.30;31.30;;;;;;6155843;28;81355;-65
2022/03/26 13:33:12;;;;;;;9.90;6.10;;;25.30;31.30;;;;;;6160380;28;80962;-73
2022/03/26 13:36:12;;;;;;;19.27;7.22;;;25.30;30.90;;;;;;6161792;28;80677;-67
2022/03/26 13:39:13;;;;;;;16.05;7.20;;;25.30;30.80;;;;;;6149086;28;80038;-71
2022/03/26 13:42:17;;;;;;;28.00;7.30;;;25.40;30.90;;;;;;6148718;28;80449;-65
2022/03/26 13:45:18;;;;;;;14.55;6.30;;;25.40;30.80;;;;;;6161199;28;80470;-66
2022/03/26 13:48:19;;;;;;;11.85;6.55;;;25.40;30.90;;;;;;6151025;28;82177;-73
2022/03/26 13:51:19;;;;;;;16.30;7.45;;;25.40;30.50;;;;;;6159413;28;86686;-67
2022/03/26 13:54:20;;;;;;;17.98;6.78;;;25.40;30.30;;;;;;6146766;28;80784;-75
2022/03/26 13:57:20;;;;;;;18.85;6.45;;;25.40;30.30;;;;;;6162116;28;82131;-71
2022/03/26 14:00:22;;;;;;;16.95;6.63;;;25.40;30.40;;;;;;6163564;28;81533;-74
2022/03/26 14:03:24;;;;;;;17.52;7.30;;;25.40;30.20;;;;;;6150434;28;81602;-65
2022/03/26 14:06:24;;;;;;;14.73;6.47;;;25.40;30.30;;;;;;6162669;28;81088;-65
2022/03/26 14:09:25;;;;;;;24.40;7.15;;;25.40;30.40;;;;;;6162824;28;80573;-65
2022/03/26 14:12:25;;;;;;;13.63;6.57;;;25.40;30.20;;;;;;6154939;28;81359;-65
2022/03/26 14:15:27;;;;;;;18.80;6.65;;;25.30;30.10;;;;;;6151160;28;80234;-65
2022/03/26 14:18:27;;;;;;;17.55;7.22;;;25.40;30.00;;;;;;6150308;28;81451;-65
2022/03/26 14:21:28;;;;;;;12.95;6.55;;;25.40;30.00;;;;;;6145403;28;80407;-65
2022/03/26 14:24:28;;;;;;;14.23;6.03;;;25.30;30.00;;;;;;6153723;28;81975;-65
2022/03/26 14:27:29;;;;;;;15.77;7.22;;;25.30;30.00;;;;;;6157672;28;80444;-65
2022/03/26 14:30:30;;;;;;;11.98;6.40;;;25.30;30.10;;;;;;6153049;28;80596;-70
2022/03/26 14:33:31;;;;;;;17.90;6.65;;;25.30;30.40;;;;;;6146897;28;82250;-77
2022/03/26 14:36:31;;;;;;;15.77;6.80;;;25.20;30.60;;;;;;6145155;28;80315;-65
2022/03/26 14:39:32;;;;;;;11.48;6.13;;;25.10;30.30;;;;;;6153488;28;81350;-64
2022/03/26 14:42:32;;;;;;;13.30;6.50;;;25.10;30.60;;;;;;6149998;28;80894;-70
2022/03/26 14:45:33;;;;;;;15.02;7.18;;;25.00;30.10;;;;;;6152454;28;80531;-72
2022/03/26 14:48:33;;;;;;;14.90;7.53;;;24.90;30.00;;;;;;6142369;28;81923;-64
2022/03/26 14:51:34;;;;;;;12.32;6.50;;;24.90;30.00;;;;;;6147971;28;80649;-66
2022/03/26 14:54:35;;;;;;;17.13;7.30;;;24.90;30.20;;;;;;6146667;28;80800;-63
2022/03/26 14:57:35;;;;;;;19.35;6.65;;;24.80;30.20;;;;;;6147305;28;80600;-63
2022/03/26 15:00:36;;;;;;;12.75;6.95;;;24.90;30.50;;;;;;6146052;28;82592;-62
2022/03/26 15:03:37;;;;;;;15.82;8.23;;;24.90;30.50;;;;;;6147959;28;81005;-63
2022/03/26 15:06:37;;;;;;;16.52;7.07;;;24.80;30.60;;;;;;6153136;28;80495;-63
2022/03/26 15:09:38;;;;;;;14.00;7.43;;;24.80;30.70;;;;;;6145966;28;80452;-62
2022/03/26 15:12:38;;;;;;;11.00;6.63;;;24.80;31.30;;;;;;6150592;28;81944;-69
2022/03/26 15:15:39;;;;;;;14.18;7.05;;;24.90;31.20;;;;;;6146678;28;80668;-62
2022/03/26 15:18:39;;;;;;;13.70;7.55;;;24.80;31.10;;;;;;6146128;28;80859;-63
2022/03/26 15:21:40;;;;;;;14.48;7.30;;;24.90;31.90;;;;;;6137023;28;81007;-64
2022/03/26 15:24:40;;;;;;;10.50;6.78;;;24.90;32.00;;;;;;6139655;28;80441;-66
2022/03/26 15:27:41;;;;;;;11.55;6.65;;;24.90;31.70;;;;;;6148790;28;81201;-66
2022/03/26 15:30:41;;;;;;;9.30;6.05;;;24.90;32.00;;;;;;6138650;28;81896;-66
2022/03/26 15:33:42;;;;;;;14.43;7.03;;;24.80;32.00;;;;;;6139290;28;81686;-65
2022/03/26 15:36:42;;;;;;;12.75;6.28;;;24.90;32.00;;;;;;6146194;28;80784;-65
2022/03/26 15:39:43;;;;;;;12.93;6.18;;;24.90;32.10;;;;;;6143560;28;80539;-65